Time;durP1;ratioP1;P1;durP2;ratioP2;P2;SDS_P1;SDS_P2;PMS_P1;PMS_P2;Temp;Humidity;BMP_temperature;BMP_pressure;BME280_temperature;BME280_humidity;BME280_pressure;Samples;Min_cycle;Max_cycle;Signal;HPM_P1;HPM_P2
2023/04/24 00:00:14;;;;;;;4.50;2.50;;;13.80;99.90;;;;;;5110461;28;20027;-39
2023/04/24 00:02:39;;;;;;;4.20;2.20;;;13.80;99.90;;;;;;5116697;27;20079;-39
2023/04/24 00:05:06;;;;;;;2.78;1.98;;;13.80;99.90;;;;;;5110127;28;20024;-39
2023/04/24 00:07:32;;;;;;;3.20;2.45;;;13.80;99.90;;;;;;5091882;28;20051;-38
2023/04/24 00:09:58;;;;;;;3.10;2.13;;;13.80;99.90;;;;;;5110352;28;20063;-38
2023/04/24 00:12:24;;;;;;;3.35;2.40;;;13.80;99.90;;;;;;5110549;28;20243;-38
2023/04/24 00:14:49;;;;;;;2.28;2.08;;;13.80;99.90;;;;;;5092273;28;20060;-39
2023/04/24 00:17:15;;;;;;;4.95;2.63;;;13.80;99.90;;;;;;5114076;27;20071;-38
2023/04/24 00:19:41;;;;;;;4.40;2.03;;;13.70;99.90;;;;;;5110065;28;20026;-38
2023/04/24 00:22:07;;;;;;;7.05;2.38;;;13.60;99.90;;;;;;5109704;28;20019;-38
2023/04/24 00:24:32;;;;;;;2.35;2.05;;;13.60;99.90;;;;;;5108519;28;20062;-38
2023/04/24 00:26:58;;;;;;;3.65;2.08;;;13.70;99.90;;;;;;5109777;28;20043;-39
2023/04/24 00:29:24;;;;;;;2.25;2.00;;;13.60;99.90;;;;;;5109539;28;20392;-39
2023/04/24 00:31:49;;;;;;;2.60;1.90;;;13.60;99.90;;;;;;5111201;27;20076;-38
2023/04/24 00:34:15;;;;;;;3.20;1.80;;;13.50;99.90;;;;;;5109392;28;20031;-38
2023/04/24 00:36:40;;;;;;;1.77;1.60;;;13.50;99.90;;;;;;5109444;28;20487;-39
2023/04/24 00:39:08;;;;;;;2.20;1.98;;;13.50;99.90;;;;;;5109260;27;20102;-38
2023/04/24 00:41:34;;;;;;;3.92;1.92;;;13.40;99.90;;;;;;5109210;28;20756;-38
2023/04/24 00:43:59;;;;;;;2.95;2.05;;;13.40;99.90;;;;;;5109292;28;20069;-38
2023/04/24 00:46:25;;;;;;;2.70;2.25;;;13.40;99.90;;;;;;5109411;28;20035;-38
2023/04/24 00:48:51;;;;;;;9.48;2.30;;;13.40;99.90;;;;;;5115675;27;20038;-38
2023/04/24 00:51:17;;;;;;;3.25;2.10;;;13.30;99.90;;;;;;5090579;28;20841;-38
2023/04/24 00:53:42;;;;;;;3.28;2.13;;;13.30;99.90;;;;;;5090942;28;20034;-38
2023/04/24 00:56:08;;;;;;;2.22;1.90;;;13.30;99.90;;;;;;5109073;28;20501;-38
2023/04/24 00:58:33;;;;;;;2.60;1.95;;;13.30;99.90;;;;;;5108898;28;20031;-38
2023/04/24 01:01:00;;;;;;;2.53;2.25;;;13.20;99.90;;;;;;5109030;28;20020;-38
2023/04/24 01:03:30;;;;;;;3.05;2.10;;;13.10;99.90;;;;;;5110130;27;20427;-39
2023/04/24 01:05:56;;;;;;;2.90;1.75;;;13.10;99.90;;;;;;5108560;28;20502;-39
2023/04/24 01:08:24;;;;;;;2.47;1.90;;;13.10;99.90;;;;;;5108705;28;20052;-39
2023/04/24 01:10:52;;;;;;;2.10;1.90;;;13.00;99.90;;;;;;5108904;28;20391;-38
2023/04/24 01:13:18;;;;;;;2.92;2.03;;;13.00;99.90;;;;;;5109472;28;20092;-38
2023/04/24 01:15:45;;;;;;;1.90;1.80;;;13.00;99.90;;;;;;5109069;28;20567;-38
2023/04/24 01:18:10;;;;;;;3.83;1.73;;;12.90;99.90;;;;;;5108382;28;20284;-39
2023/04/24 01:20:39;;;;;;;2.00;1.80;;;12.90;99.90;;;;;;5108809;28;20098;-38
2023/04/24 01:23:08;;;;;;;4.80;1.85;;;12.90;99.90;;;;;;5108960;28;20038;-38
2023/04/24 01:25:34;;;;;;;3.72;1.60;;;12.90;99.90;;;;;;5108660;28;20028;-38
2023/04/24 01:28:00;;;;;;;2.17;1.70;;;12.90;99.90;;;;;;5108605;28;20059;-39
2023/04/24 01:30:26;;;;;;;3.78;1.60;;;12.90;99.90;;;;;;5110764;27;20070;-39
2023/04/24 01:32:53;;;;;;;2.45;1.88;;;13.00;99.90;;;;;;5108511;28;20030;-38
2023/04/24 01:35:19;;;;;;;1.42;1.33;;;12.90;99.90;;;;;;5110162;27;20031;-38
2023/04/24 01:37:45;;;;;;;1.80;1.70;;;12.90;99.90;;;;;;5108171;28;20031;-39
2023/04/24 01:40:11;;;;;;;1.40;1.30;;;12.90;99.90;;;;;;5112717;27;20023;-39
2023/04/24 01:42:37;;;;;;;1.30;1.20;;;12.80;99.90;;;;;;5110678;27;20059;-38
2023/04/24 01:45:05;;;;;;;1.67;1.27;;;12.90;99.90;;;;;;5108599;28;20068;-38
2023/04/24 01:47:31;;;;;;;1.73;1.50;;;12.80;99.90;;;;;;5108643;28;20059;-39
2023/04/24 01:49:58;;;;;;;1.70;1.45;;;12.80;99.90;;;;;;5108259;28;20021;-39
2023/04/24 01:52:24;;;;;;;3.13;1.48;;;12.80;99.90;;;;;;5107903;28;20027;-38
2023/04/24 01:54:50;;;;;;;4.60;1.42;;;12.70;99.90;;;;;;5107853;28;20046;-38
2023/04/24 01:57:16;;;;;;;4.43;1.50;;;12.70;99.90;;;;;;5107023;27;20371;-39
2023/04/24 01:59:42;;;;;;;1.73;1.30;;;12.70;99.90;;;;;;5107368;28;20080;-38
2023/04/24 02:02:07;;;;;;;2.45;1.35;;;12.60;99.90;;;;;;5107487;28;20031;-38
2023/04/24 02:04:33;;;;;;;2.63;1.40;;;12.60;99.90;;;;;;5108046;28;20023;-39
2023/04/24 02:06:58;;;;;;;3.75;1.45;;;12.60;99.90;;;;;;5089314;28;20019;-38
2023/04/24 02:09:24;;;;;;;1.90;1.45;;;12.60;99.90;;;;;;5108395;28;20038;-38
2023/04/24 02:11:50;;;;;;;4.32;1.58;;;12.50;99.90;;;;;;5102256;28;20035;-39
2023/04/24 02:14:16;;;;;;;1.88;1.38;;;12.50;99.90;;;;;;5109288;27;20027;-39
2023/04/24 02:16:42;;;;;;;2.75;1.33;;;12.50;99.90;;;;;;5108534;28;20083;-38
2023/04/24 02:19:07;;;;;;;2.08;1.45;;;12.40;99.90;;;;;;5104902;28;20226;-38
2023/04/24 02:21:33;;;;;;;3.17;1.77;;;12.50;99.90;;;;;;5106968;28;20154;-39
2023/04/24 02:23:59;;;;;;;1.38;1.20;;;12.40;99.90;;;;;;5107588;28;20023;-39
2023/04/24 02:26:24;;;;;;;1.50;1.40;;;12.40;99.90;;;;;;5107180;28;20270;-38
2023/04/24 02:28:50;;;;;;;2.45;1.70;;;12.40;99.90;;;;;;5107619;27;20079;-39
2023/04/24 02:31:15;;;;;;;3.60;1.58;;;12.50;99.90;;;;;;5107256;28;20492;-39
2023/04/24 02:33:41;;;;;;;5.75;1.58;;;12.40;99.90;;;;;;5107369;28;20047;-38
2023/04/24 02:36:07;;;;;;;2.13;1.23;;;12.40;99.90;;;;;;5107431;28;20035;-38
2023/04/24 02:38:32;;;;;;;1.92;1.70;;;12.40;99.90;;;;;;5107173;28;20532;-38
2023/04/24 02:40:58;;;;;;;2.70;1.30;;;12.30;99.90;;;;;;5088352;28;20054;-39
2023/04/24 02:43:23;;;;;;;3.50;1.40;;;12.30;99.90;;;;;;5107193;28;20072;-39
2023/04/24 02:45:49;;;;;;;3.38;1.75;;;12.20;99.90;;;;;;5088868;28;20110;-39
2023/04/24 02:48:15;;;;;;;2.88;1.58;;;12.30;99.90;;;;;;5107052;27;20103;-38
2023/04/24 02:50:40;;;;;;;3.85;1.70;;;12.30;99.90;;;;;;5109413;28;20028;-39
2023/04/24 02:53:06;;;;;;;6.72;1.63;;;12.20;99.90;;;;;;5107793;28;20133;-39
2023/04/24 02:55:32;;;;;;;4.20;1.50;;;12.20;99.90;;;;;;5107393;28;20030;-39
2023/04/24 02:57:57;;;;;;;1.92;1.52;;;12.10;99.90;;;;;;5107106;28;20505;-38
2023/04/24 03:00:23;;;;;;;6.68;1.33;;;12.10;99.90;;;;;;5111656;28;20393;-38
2023/04/24 03:02:49;;;;;;;6.47;1.48;;;12.10;99.90;;;;;;5107331;28;20055;-38
2023/04/24 03:05:15;;;;;;;3.00;1.15;;;12.10;99.90;;;;;;5088845;28;20031;-38
2023/04/24 03:07:41;;;;;;;3.95;1.48;;;12.00;99.90;;;;;;5107363;28;20031;-39
2023/04/24 03:10:07;;;;;;;4.50;1.70;;;12.00;99.90;;;;;;5106859;28;20027;-39
2023/04/24 03:12:33;;;;;;;2.50;1.42;;;12.00;99.90;;;;;;5106569;28;20485;-39
2023/04/24 03:14:58;;;;;;;3.95;1.60;;;11.90;99.90;;;;;;5110171;28;20027;-38
2023/04/24 03:17:24;;;;;;;2.63;1.77;;;11.90;99.90;;;;;;5111769;28;20031;-38
2023/04/24 03:19:49;;;;;;;2.25;1.70;;;11.80;99.90;;;;;;5107501;28;20038;-38
2023/04/24 03:22:15;;;;;;;6.60;1.88;;;11.80;99.90;;;;;;5107170;28;20098;-38
2023/04/24 03:24:41;;;;;;;2.20;1.92;;;11.70;99.90;;;;;;5106457;28;20126;-38
2023/04/24 03:27:06;;;;;;;1.60;1.50;;;11.70;99.90;;;;;;5107011;28;20024;-39
2023/04/24 03:29:32;;;;;;;4.32;1.73;;;11.60;99.90;;;;;;5107438;28;20030;-39
2023/04/24 03:31:57;;;;;;;2.00;1.75;;;11.60;99.90;;;;;;5106899;28;20038;-39
2023/04/24 03:34:23;;;;;;;4.93;2.10;;;11.50;99.90;;;;;;5107100;28;20034;-39
2023/04/24 03:36:48;;;;;;;1.75;1.42;;;11.50;99.90;;;;;;5107068;28;20557;-39
2023/04/24 03:39:14;;;;;;;2.33;1.90;;;11.50;99.90;;;;;;5106966;28;20479;-39
2023/04/24 03:41:39;;;;;;;8.05;1.92;;;11.40;99.90;;;;;;5088069;28;20073;-39
2023/04/24 03:44:05;;;;;;;3.45;1.52;;;11.40;99.90;;;;;;5106411;28;20107;-39
2023/04/24 03:46:30;;;;;;;2.13;1.60;;;11.40;99.90;;;;;;5107607;28;20385;-39
2023/04/24 03:48:56;;;;;;;3.28;1.67;;;11.40;99.90;;;;;;5108414;28;20477;-39
2023/04/24 03:51:22;;;;;;;3.92;1.70;;;11.30;99.90;;;;;;5106281;28;20455;-38
2023/04/24 03:53:48;;;;;;;1.65;1.35;;;11.20;99.90;;;;;;5106566;28;20548;-38
2023/04/24 03:56:14;;;;;;;2.08;1.77;;;11.20;99.90;;;;;;5106383;28;20452;-38
2023/04/24 03:58:39;;;;;;;1.48;1.20;;;11.20;99.90;;;;;;5107581;28;20073;-38
2023/04/24 04:01:05;;;;;;;2.30;1.80;;;11.30;99.90;;;;;;5109738;28;20112;-38
2023/04/24 04:03:30;;;;;;;3.70;2.20;;;11.20;99.90;;;;;;5092365;28;20023;-38
2023/04/24 04:05:56;;;;;;;2.25;1.58;;;11.20;99.90;;;;;;5110900;28;20024;-38
2023/04/24 04:08:22;;;;;;;4.05;2.30;;;11.20;99.90;;;;;;5110401;28;20028;-39
2023/04/24 04:10:47;;;;;;;3.90;1.40;;;11.10;99.90;;;;;;5110571;28;20027;-39
2023/04/24 04:13:13;;;;;;;6.32;1.50;;;11.20;99.90;;;;;;5092005;28;20024;-38
2023/04/24 04:15:39;;;;;;;1.77;1.35;;;11.10;99.90;;;;;;5110574;28;20050;-38
2023/04/24 04:18:05;;;;;;;1.45;1.08;;;11.10;99.90;;;;;;5114269;27;20023;-39
2023/04/24 04:20:30;;;;;;;1.92;1.40;;;11.10;99.90;;;;;;5109497;28;20019;-39
2023/04/24 04:22:56;;;;;;;3.55;1.30;;;11.10;99.90;;;;;;5110075;28;20027;-39
2023/04/24 04:25:22;;;;;;;1.95;1.60;;;11.10;99.90;;;;;;5110092;28;20023;-39
2023/04/24 04:27:48;;;;;;;1.92;1.45;;;11.20;99.90;;;;;;5110367;27;20365;-38
2023/04/24 04:30:14;;;;;;;3.90;1.65;;;11.20;99.90;;;;;;5115749;27;20026;-39
2023/04/24 04:32:40;;;;;;;2.95;1.42;;;11.20;99.90;;;;;;5109290;28;20028;-40
2023/04/24 04:35:06;;;;;;;4.13;1.35;;;11.20;99.90;;;;;;5125020;27;20035;-39
2023/04/24 04:37:35;;;;;;;2.03;1.23;;;11.30;99.90;;;;;;5110111;28;20351;-39
2023/04/24 04:40:11;;;;;;;2.05;1.52;;;11.30;99.90;;;;;;5109721;28;20024;-39
2023/04/24 04:42:40;;;;;;;4.50;1.40;;;11.30;99.90;;;;;;5109700;28;20098;-39
2023/04/24 04:45:09;;;;;;;2.78;1.42;;;11.30;99.90;;;;;;5109267;28;20015;-39
2023/04/24 04:47:34;;;;;;;2.05;1.42;;;11.30;99.90;;;;;;5109694;28;20024;-39
2023/04/24 04:50:00;;;;;;;1.75;1.17;;;11.30;99.90;;;;;;5109491;28;20023;-39
2023/04/24 04:52:26;;;;;;;1.30;1.20;;;11.30;99.90;;;;;;5109293;28;20031;-39
2023/04/24 04:54:52;;;;;;;4.88;1.30;;;11.40;99.90;;;;;;5109386;28;20392;-39
2023/04/24 04:57:17;;;;;;;2.88;1.63;;;11.40;99.90;;;;;;5124826;27;20493;-39
2023/04/24 04:59:43;;;;;;;5.88;1.30;;;11.30;99.90;;;;;;5116376;27;20391;-39
2023/04/24 05:02:09;;;;;;;2.28;1.27;;;11.20;99.90;;;;;;5108770;28;20032;-39
2023/04/24 05:04:34;;;;;;;1.55;1.25;;;11.20;99.90;;;;;;5090718;28;20043;-39
2023/04/24 05:07:00;;;;;;;2.85;1.63;;;11.30;99.90;;;;;;5108201;28;20396;-39
2023/04/24 05:09:27;;;;;;;2.85;1.77;;;11.20;99.90;;;;;;5108321;28;20028;-38
2023/04/24 05:11:53;;;;;;;2.75;1.30;;;11.20;99.90;;;;;;5107725;28;20023;-39
2023/04/24 05:14:18;;;;;;;2.78;1.23;;;11.20;99.90;;;;;;5108411;28;20052;-39
2023/04/24 05:16:44;;;;;;;5.53;2.40;;;11.20;99.90;;;;;;5108818;28;20148;-39
2023/04/24 05:19:11;;;;;;;6.13;2.95;;;11.20;99.90;;;;;;5108747;28;20039;-38
2023/04/24 05:21:37;;;;;;;4.15;1.67;;;11.20;99.90;;;;;;5108469;28;20024;-39
2023/04/24 05:24:03;;;;;;;2.13;1.30;;;11.20;99.90;;;;;;5110354;27;20628;-38
2023/04/24 05:26:28;;;;;;;2.13;1.23;;;11.30;99.90;;;;;;5123692;27;20031;-38
2023/04/24 05:28:54;;;;;;;2.80;1.10;;;11.30;99.90;;;;;;5106828;27;20027;-39
2023/04/24 05:31:19;;;;;;;1.83;1.30;;;11.40;99.90;;;;;;5107495;28;20076;-39
2023/04/24 05:33:45;;;;;;;2.30;1.33;;;11.50;99.90;;;;;;5108825;27;20028;-39
2023/04/24 05:36:10;;;;;;;2.00;1.20;;;11.60;99.90;;;;;;5108514;28;20027;-39
2023/04/24 05:38:36;;;;;;;1.55;1.05;;;11.60;99.90;;;;;;5108447;27;20027;-39
2023/04/24 05:41:01;;;;;;;4.47;1.40;;;11.80;99.90;;;;;;5108069;28;20027;-38
2023/04/24 05:43:27;;;;;;;4.80;1.40;;;11.70;99.90;;;;;;5109609;27;20197;-39
2023/04/24 05:45:53;;;;;;;4.82;1.38;;;11.80;99.90;;;;;;5108542;28;20030;-38
2023/04/24 05:48:19;;;;;;;3.75;1.02;;;11.80;99.90;;;;;;5108089;28;20064;-39
2023/04/24 05:50:44;;;;;;;1.35;1.00;;;11.90;99.90;;;;;;5108823;27;20381;-38
2023/04/24 05:53:10;;;;;;;1.27;1.08;;;12.00;99.90;;;;;;5108338;28;20430;-38
2023/04/24 05:55:36;;;;;;;3.67;1.15;;;12.00;99.90;;;;;;5109971;27;20011;-38
2023/04/24 05:58:02;;;;;;;2.20;1.10;;;12.00;99.90;;;;;;5090391;28;20023;-39
2023/04/24 06:00:28;;;;;;;5.28;1.33;;;12.00;99.90;;;;;;5108596;28;20023;-38
2023/04/24 06:02:54;;;;;;;1.73;1.05;;;12.00;99.90;;;;;;5109735;27;20020;-38
2023/04/24 06:05:19;;;;;;;2.60;1.38;;;12.10;99.90;;;;;;5107683;28;20027;-39
2023/04/24 06:07:45;;;;;;;1.05;0.90;;;12.10;99.90;;;;;;5107796;28;20507;-38
2023/04/24 06:10:11;;;;;;;3.15;1.15;;;12.20;99.90;;;;;;5107726;28;20024;-38
2023/04/24 06:12:37;;;;;;;2.55;0.90;;;12.30;99.90;;;;;;5101759;28;20028;-38
2023/04/24 06:15:03;;;;;;;4.50;1.30;;;12.30;99.90;;;;;;5101123;28;20031;-38
2023/04/24 06:17:29;;;;;;;4.03;1.27;;;12.40;99.90;;;;;;5106504;27;20027;-38
2023/04/24 06:19:54;;;;;;;1.35;1.10;;;12.40;99.90;;;;;;5107911;28;20023;-38
2023/04/24 06:22:20;;;;;;;1.52;0.90;;;12.40;99.90;;;;;;5105969;28;20015;-38
2023/04/24 06:24:47;;;;;;;3.22;1.23;;;12.40;99.90;;;;;;5106859;28;20032;-38
2023/04/24 06:27:12;;;;;;;1.23;1.10;;;12.50;99.90;;;;;;5087336;27;20027;-38
2023/04/24 06:29:38;;;;;;;1.13;1.02;;;12.60;99.90;;;;;;5101358;27;20097;-38
2023/04/24 06:32:03;;;;;;;3.10;1.10;;;12.70;99.90;;;;;;5085475;28;20110;-38
2023/04/24 06:34:30;;;;;;;1.70;1.23;;;12.90;99.90;;;;;;5106087;28;20032;-38
2023/04/24 06:36:56;;;;;;;1.33;0.98;;;13.10;99.90;;;;;;5109283;27;20054;-39
2023/04/24 06:39:21;;;;;;;3.17;0.93;;;13.20;99.90;;;;;;5106917;28;20020;-39
2023/04/24 06:41:47;;;;;;;1.05;0.73;;;13.30;99.90;;;;;;5106801;28;20020;-38
2023/04/24 06:44:14;;;;;;;1.23;1.00;;;13.50;99.90;;;;;;5106647;28;20042;-38
2023/04/24 06:46:40;;;;;;;15.43;10.50;;;13.50;99.90;;;;;;5088527;28;20033;-38
2023/04/24 06:49:06;;;;;;;13.70;8.68;;;13.60;99.90;;;;;;5106246;28;20118;-37
2023/04/24 06:51:32;;;;;;;3.28;1.40;;;13.60;99.90;;;;;;5106568;28;20095;-38
2023/04/24 06:53:58;;;;;;;0.90;0.90;;;13.50;99.90;;;;;;5107122;28;20114;-37
2023/04/24 06:56:25;;;;;;;2.80;1.13;;;13.50;99.90;;;;;;5106865;28;20532;-37
2023/04/24 06:58:51;;;;;;;3.10;1.13;;;13.40;99.90;;;;;;5090353;28;20058;-38
2023/04/24 07:01:16;;;;;;;6.90;2.45;;;13.40;99.90;;;;;;5106260;28;20023;-37
2023/04/24 07:03:42;;;;;;;3.28;1.30;;;13.20;99.90;;;;;;5106717;28;20049;-38
2023/04/24 07:06:09;;;;;;;2.90;1.17;;;13.20;99.90;;;;;;5106165;28;20038;-38
2023/04/24 07:08:35;;;;;;;3.47;1.50;;;13.10;99.90;;;;;;5106576;28;20016;-37
2023/04/24 07:11:01;;;;;;;1.55;1.30;;;13.20;99.90;;;;;;5106742;28;20102;-37
2023/04/24 07:13:27;;;;;;;1.13;1.02;;;13.10;99.90;;;;;;5087788;28;20544;-37
2023/04/24 07:15:54;;;;;;;4.03;1.40;;;13.10;99.90;;;;;;5085683;28;20059;-37
2023/04/24 07:18:21;;;;;;;1.42;1.10;;;13.10;99.90;;;;;;5089489;28;20388;-37
2023/04/24 07:20:46;;;;;;;1.80;1.33;;;13.20;99.90;;;;;;5106380;28;20035;-38
2023/04/24 07:23:12;;;;;;;3.08;1.42;;;13.30;99.90;;;;;;5107074;28;20031;-38
2023/04/24 07:25:38;;;;;;;1.98;1.20;;;13.20;99.90;;;;;;5107050;28;20484;-38
2023/04/24 07:28:04;;;;;;;1.80;1.08;;;13.30;99.90;;;;;;5107453;28;20028;-38
2023/04/24 07:30:30;;;;;;;2.20;1.48;;;13.30;99.90;;;;;;5105896;28;20023;-38
2023/04/24 07:32:56;;;;;;;3.10;1.33;;;13.30;99.90;;;;;;5107259;28;20489;-38
2023/04/24 07:35:21;;;;;;;2.83;1.45;;;13.30;99.90;;;;;;5092030;28;20107;-38
2023/04/24 07:37:47;;;;;;;3.13;1.17;;;13.50;99.90;;;;;;5110177;28;20028;-38
2023/04/24 07:40:13;;;;;;;2.75;1.55;;;13.70;99.90;;;;;;5091764;28;20023;-38
2023/04/24 07:42:39;;;;;;;3.38;1.85;;;13.80;99.90;;;;;;5110032;28;20253;-38
2023/04/24 07:45:05;;;;;;;4.40;1.48;;;13.90;99.90;;;;;;5109824;28;20047;-38
2023/04/24 07:47:31;;;;;;;2.08;1.88;;;14.00;99.90;;;;;;5110031;28;20023;-38
2023/04/24 07:49:57;;;;;;;6.00;1.77;;;13.90;99.90;;;;;;5109569;28;20024;-38
2023/04/24 07:52:23;;;;;;;2.72;1.45;;;14.20;99.90;;;;;;5109944;28;20036;-38
2023/04/24 07:54:49;;;;;;;2.58;1.38;;;14.40;99.90;;;;;;5109865;28;20510;-37
2023/04/24 07:57:15;;;;;;;2.83;1.42;;;14.30;99.90;;;;;;5111237;27;20102;-37
2023/04/24 07:59:41;;;;;;;5.55;1.83;;;14.40;99.90;;;;;;5092608;28;20556;-38
2023/04/24 08:02:07;;;;;;;5.95;1.80;;;14.10;99.90;;;;;;5111077;27;20287;-37
2023/04/24 08:04:33;;;;;;;5.18;1.20;;;14.10;99.90;;;;;;5109521;28;20055;-37
2023/04/24 08:06:59;;;;;;;2.45;1.20;;;13.90;99.90;;;;;;5109969;28;20051;-37
2023/04/24 08:09:25;;;;;;;4.32;1.20;;;13.70;99.90;;;;;;5109487;28;20426;-37
2023/04/24 08:11:50;;;;;;;2.53;1.02;;;13.30;99.90;;;;;;5109334;28;20092;-37
2023/04/24 08:14:16;;;;;;;1.55;1.10;;;13.00;99.90;;;;;;5109258;28;20059;-37
2023/04/24 08:16:41;;;;;;;1.33;1.20;;;12.90;99.90;;;;;;5109721;28;20422;-37
2023/04/24 08:19:07;;;;;;;2.30;1.77;;;12.70;99.90;;;;;;5109460;28;20070;-37
2023/04/24 08:21:33;;;;;;;2.50;1.73;;;12.60;99.90;;;;;;5109664;28;20123;-37
2023/04/24 08:23:58;;;;;;;6.07;1.70;;;12.40;99.90;;;;;;5109466;28;20560;-37
2023/04/24 08:26:24;;;;;;;3.08;1.75;;;12.30;99.90;;;;;;5108984;27;20042;-37
2023/04/24 08:28:50;;;;;;;2.75;2.00;;;11.80;99.90;;;;;;5111353;27;20058;-38
2023/04/24 08:31:15;;;;;;;2.22;1.75;;;11.60;99.90;;;;;;5109144;28;20027;-38
2023/04/24 08:33:41;;;;;;;2.22;2.00;;;11.50;99.90;;;;;;5116599;27;20181;-38
2023/04/24 08:36:07;;;;;;;4.80;2.53;;;11.50;99.90;;;;;;5109218;28;20170;-38
2023/04/24 08:38:33;;;;;;;2.83;2.00;;;11.60;99.90;;;;;;5109427;28;20030;-40
2023/04/24 08:41:00;;;;;;;4.32;2.30;;;11.60;99.90;;;;;;5110329;27;20076;-38
2023/04/24 08:43:26;;;;;;;3.85;2.40;;;11.70;99.90;;;;;;5109145;28;20132;-38
2023/04/24 08:45:52;;;;;;;2.67;2.17;;;11.80;99.90;;;;;;5108136;28;20136;-38
2023/04/24 08:48:18;;;;;;;3.70;2.50;;;11.90;99.90;;;;;;5116558;27;20055;-37
2023/04/24 08:50:44;;;;;;;4.65;2.40;;;11.90;99.90;;;;;;5109366;28;20094;-38
2023/04/24 08:53:11;;;;;;;4.28;3.03;;;12.00;99.90;;;;;;5109578;28;20111;-38
2023/04/24 08:55:37;;;;;;;4.03;2.47;;;12.10;99.90;;;;;;5109710;28;20539;-38
2023/04/24 08:58:04;;;;;;;2.78;2.13;;;12.30;99.90;;;;;;5109113;28;20193;-38
2023/04/24 09:00:30;;;;;;;4.75;2.53;;;12.40;99.90;;;;;;5109594;28;20024;-38
2023/04/24 09:02:56;;;;;;;3.30;2.45;;;12.50;99.90;;;;;;5097575;27;20042;-38
2023/04/24 09:05:23;;;;;;;6.13;2.83;;;12.80;99.90;;;;;;5090417;28;20023;-39
2023/04/24 09:07:56;;;;;;;6.32;2.40;;;13.80;99.90;;;;;;5108706;28;20087;-38
2023/04/24 09:10:24;;;;;;;3.13;2.42;;;14.20;99.90;;;;;;5109024;28;20035;-38
2023/04/24 09:12:51;;;;;;;6.60;2.00;;;15.60;99.90;;;;;;5108640;28;20115;-39
2023/04/24 09:15:18;;;;;;;3.90;2.08;;;17.60;99.90;;;;;;5108953;28;20016;-39
2023/04/24 09:17:44;;;;;;;3.05;2.53;;;18.20;96.10;;;;;;5108475;28;20120;-39
2023/04/24 09:20:10;;;;;;;6.43;2.83;;;18.50;94.70;;;;;;5108884;28;20101;-39
2023/04/24 09:22:37;;;;;;;2.78;2.42;;;18.60;92.20;;;;;;5109654;27;20100;-39
2023/04/24 09:25:07;;;;;;;3.00;2.70;;;18.20;92.30;;;;;;5109076;28;20051;-38
2023/04/24 09:27:33;;;;;;;2.85;2.20;;;17.70;92.30;;;;;;5108833;28;20035;-38
2023/04/24 09:30:00;;;;;;;4.07;3.15;;;17.00;94.10;;;;;;5108131;28;20036;-38
2023/04/24 09:32:26;;;;;;;3.22;2.90;;;16.20;94.00;;;;;;5108301;28;20062;-38
2023/04/24 09:35:10;;;;;;;4.75;3.38;;;15.50;95.50;;;;;;5090454;28;20051;-38
2023/04/24 09:37:37;;;;;;;5.20;3.67;;;15.00;97.00;;;;;;5108214;28;20019;-38
2023/04/24 09:40:11;;;;;;;5.70;4.03;;;14.60;98.30;;;;;;5108151;28;20030;-38
2023/04/24 09:42:36;;;;;;;4.90;4.03;;;14.30;98.90;;;;;;5107861;28;20031;-38
2023/04/24 09:45:02;;;;;;;5.72;3.55;;;14.30;98.10;;;;;;5107942;28;20447;-38
2023/04/24 09:47:39;;;;;;;5.75;3.95;;;15.20;97.80;;;;;;5108400;28;20488;-38
2023/04/24 09:50:15;;;;;;;3.45;3.15;;;17.60;92.70;;;;;;5106961;28;20576;-39
2023/04/24 09:52:42;;;;;;;6.57;4.70;;;19.90;90.30;;;;;;5108271;27;20023;-39
2023/04/24 09:55:13;;;;;;;4.60;3.67;;;20.90;80.00;;;;;;5108402;28;20023;-39
2023/04/24 09:57:56;;;;;;;4.57;3.15;;;21.80;79.80;;;;;;5089554;28;20027;-39
2023/04/24 10:00:30;;;;;;;4.28;3.13;;;23.00;73.60;;;;;;5106744;28;20020;-40
2023/04/24 10:03:00;;;;;;;7.18;4.00;;;22.90;65.80;;;;;;5105695;28;20435;-39
2023/04/24 10:05:32;;;;;;;4.18;3.45;;;21.30;65.70;;;;;;5108853;27;20043;-39
2023/04/24 10:08:02;;;;;;;3.88;2.88;;;21.40;68.20;;;;;;5088984;28;20023;-39
2023/04/24 10:10:29;;;;;;;4.30;3.50;;;21.20;69.50;;;;;;5107849;28;20431;-39
2023/04/24 10:12:55;;;;;;;3.83;3.45;;;20.60;69.30;;;;;;5107715;28;20691;-39
2023/04/24 10:15:21;;;;;;;4.05;3.30;;;19.90;70.40;;;;;;5107316;28;20027;-38
2023/04/24 10:17:52;;;;;;;5.22;3.13;;;19.00;72.50;;;;;;5106977;28;20024;-39
2023/04/24 10:20:29;;;;;;;5.03;3.95;;;18.50;73.70;;;;;;5107361;27;20055;-39
2023/04/24 10:22:55;;;;;;;3.80;3.30;;;17.70;76.10;;;;;;5106705;28;20023;-38
2023/04/24 10:25:23;;;;;;;7.63;3.80;;;16.90;78.30;;;;;;5107670;28;20020;-38
2023/04/24 10:27:50;;;;;;;4.70;3.10;;;16.80;78.40;;;;;;5107420;28;20019;-38
2023/04/24 10:30:17;;;;;;;3.42;2.60;;;17.70;80.50;;;;;;5108044;28;20076;-38
2023/04/24 10:32:43;;;;;;;5.30;3.20;;;19.40;74.90;;;;;;5107169;28;20054;-40
2023/04/24 10:35:11;;;;;;;3.35;2.70;;;20.60;71.70;;;;;;5107404;28;20055;-39
2023/04/24 10:37:39;;;;;;;2.40;2.20;;;21.90;66.90;;;;;;5107278;28;20020;-39
2023/04/24 10:40:07;;;;;;;2.53;2.33;;;22.00;67.30;;;;;;5107577;28;20046;-39
2023/04/24 10:42:33;;;;;;;3.63;2.47;;;22.30;66.50;;;;;;5104605;28;20019;-39
2023/04/24 10:45:01;;;;;;;2.65;2.17;;;22.50;64.80;;;;;;5107654;28;20024;-39
2023/04/24 10:47:27;;;;;;;2.15;1.95;;;23.50;63.00;;;;;;5107526;27;20032;-39
2023/04/24 10:49:53;;;;;;;5.18;4.47;;;23.50;61.20;;;;;;5107362;28;20068;-39
2023/04/24 10:52:19;;;;;;;4.35;3.95;;;22.30;62.00;;;;;;5111570;27;20030;-39
2023/04/24 10:54:46;;;;;;;4.63;3.47;;;21.20;65.30;;;;;;5088296;28;20122;-39
2023/04/24 10:57:19;;;;;;;2.45;2.10;;;19.90;67.40;;;;;;5107687;28;20449;-38
2023/04/24 10:59:45;;;;;;;6.05;2.47;;;19.20;67.80;;;;;;5106199;28;20020;-38
2023/04/24 11:02:13;;;;;;;2.60;2.25;;;17.80;70.20;;;;;;5107981;28;20031;-38
2023/04/24 11:04:39;;;;;;;8.38;2.67;;;17.20;71.30;;;;;;5085642;28;20396;-38
2023/04/24 11:07:05;;;;;;;4.28;2.58;;;16.60;73.40;;;;;;5106672;28;20107;-37
2023/04/24 11:09:31;;;;;;;2.65;2.35;;;16.80;75.00;;;;;;5109423;28;20039;-38
2023/04/24 11:12:10;;;;;;;6.30;2.50;;;17.50;73.70;;;;;;5110801;28;20023;-38
2023/04/24 11:14:58;;;;;;;3.38;2.17;;;17.60;74.00;;;;;;5109573;28;20022;-38
2023/04/24 11:17:33;;;;;;;3.20;2.20;;;17.50;73.20;;;;;;5110440;28;20028;-38
2023/04/24 11:20:04;;;;;;;3.05;2.60;;;17.30;73.90;;;;;;5087765;28;20025;-38
2023/04/24 11:22:34;;;;;;;3.00;2.58;;;16.80;73.70;;;;;;5108995;28;20073;-38
2023/04/24 11:25:03;;;;;;;4.65;2.58;;;16.50;74.30;;;;;;5112724;27;20216;-38
2023/04/24 11:27:40;;;;;;;2.50;2.30;;;16.70;75.40;;;;;;5110000;28;20131;-38
2023/04/24 11:30:06;;;;;;;4.13;2.90;;;17.00;75.70;;;;;;5110781;28;20393;-38
2023/04/24 11:32:40;;;;;;;4.10;2.70;;;16.90;75.00;;;;;;5093455;28;20035;-38
2023/04/24 11:35:06;;;;;;;2.58;2.05;;;16.70;74.10;;;;;;5092142;28;20036;-38
2023/04/24 11:37:36;;;;;;;3.50;2.17;;;16.40;75.00;;;;;;5110847;28;20042;-38
2023/04/24 11:40:03;;;;;;;5.90;2.30;;;16.50;75.30;;;;;;5110647;28;20388;-38
2023/04/24 11:42:34;;;;;;;3.47;2.00;;;16.80;73.70;;;;;;5110526;28;20023;-38
2023/04/24 11:45:01;;;;;;;2.58;1.77;;;17.90;75.20;;;;;;5110894;28;20381;-38
2023/04/24 11:47:33;;;;;;;4.28;1.95;;;18.40;72.00;;;;;;5109715;27;20020;-38
2023/04/24 11:49:58;;;;;;;3.17;2.05;;;18.60;71.90;;;;;;5109533;28;20119;-38
2023/04/24 11:52:24;;;;;;;7.10;1.67;;;18.50;69.80;;;;;;5110212;28;20133;-38
2023/04/24 11:54:50;;;;;;;5.25;2.28;;;18.10;71.70;;;;;;5113035;27;20512;-38
2023/04/24 11:57:18;;;;;;;3.13;2.50;;;17.40;70.80;;;;;;5109562;28;20039;-38
2023/04/24 11:59:44;;;;;;;4.75;2.25;;;16.80;71.70;;;;;;5093448;27;20066;-38
2023/04/24 12:02:23;;;;;;;4.65;1.90;;;16.00;74.30;;;;;;5090891;28;20027;-37
2023/04/24 12:04:49;;;;;;;3.05;1.85;;;15.90;74.20;;;;;;5110392;28;20031;-37
2023/04/24 12:07:15;;;;;;;3.13;1.92;;;15.90;73.80;;;;;;5110052;28;20556;-37
2023/04/24 12:09:45;;;;;;;3.45;1.83;;;15.50;75.10;;;;;;5109740;28;20415;-37
2023/04/24 12:12:16;;;;;;;1.60;1.42;;;15.60;75.10;;;;;;5109952;28;20158;-37
2023/04/24 12:14:50;;;;;;;3.38;1.60;;;15.60;74.30;;;;;;5090279;28;20065;-37
2023/04/24 12:17:31;;;;;;;1.70;1.60;;;15.40;74.90;;;;;;5109701;28;20027;-37
2023/04/24 12:20:07;;;;;;;3.20;1.88;;;15.50;75.70;;;;;;5109605;28;20458;-38
2023/04/24 12:22:54;;;;;;;2.05;1.60;;;15.20;76.50;;;;;;5085654;28;20020;-37
2023/04/24 12:25:20;;;;;;;3.17;1.65;;;15.30;76.70;;;;;;5090107;28;20747;-37
2023/04/24 12:28:10;;;;;;;3.15;1.48;;;15.40;75.90;;;;;;5089397;28;20048;-37
2023/04/24 12:30:48;;;;;;;2.05;1.52;;;15.40;75.60;;;;;;5103291;27;20525;-38
2023/04/24 12:33:18;;;;;;;1.60;1.30;;;15.20;76.20;;;;;;5112472;27;20030;-38
2023/04/24 12:35:44;;;;;;;9.07;6.50;;;15.10;77.60;;;;;;5109792;28;20031;-38
2023/04/24 12:38:12;;;;;;;9.95;6.60;;;15.40;77.40;;;;;;5111681;27;20054;-38
2023/04/24 12:40:38;;;;;;;1.88;1.63;;;15.60;77.70;;;;;;5111833;27;20552;-38
2023/04/24 12:43:14;;;;;;;1.52;1.33;;;15.90;76.50;;;;;;5109908;28;20111;-38